createdAt,value
2023-01-09T00:00:15.128Z,0.22
2023-01-09T00:02:42.219Z,0.30
2023-01-09T00:07:54.369Z,0.30
2023-01-09T00:10:21.034Z,0.40
2023-01-09T00:12:47.782Z,0.47
2023-01-09T00:15:14.408Z,1.63
2023-01-09T00:17:41.391Z,0.43
2023-01-09T00:22:51.192Z,0.40
2023-01-09T00:25:17.978Z,1.08
2023-01-09T00:27:44.707Z,1.27
2023-01-09T00:30:11.793Z,0.85
2023-01-09T00:32:38.480Z,1.20
2023-01-09T00:37:42.765Z,2.22
2023-01-09T00:40:10.353Z,1.92
2023-01-09T00:42:37.187Z,2.35
2023-01-09T00:45:08.367Z,2.33
2023-01-09T00:47:43.963Z,3.58
2023-01-09T00:50:16.861Z,1.25
2023-01-09T00:52:44.360Z,0.90
2023-01-09T00:55:11.391Z,0.70
2023-01-09T00:57:38.127Z,0.50
2023-01-09T01:00:05.699Z,0.55
2023-01-09T01:02:39.921Z,0.90
2023-01-09T01:07:41.191Z,1.13
2023-01-09T01:10:22.587Z,0.70
2023-01-09T01:12:50.090Z,1.42
2023-01-09T01:15:17.485Z,0.47
2023-01-09T01:17:44.322Z,0.28
2023-01-09T01:20:16.758Z,0.73
2023-01-09T01:22:43.510Z,0.22
2023-01-09T01:25:11.748Z,0.30
2023-01-09T01:27:38.825Z,0.38
2023-01-09T01:30:07.503Z,1.75
2023-01-09T01:32:35.539Z,0.38
2023-01-09T01:37:35.665Z,0.30
2023-01-09T01:40:02.894Z,0.40
2023-01-09T01:42:29.653Z,0.30
2023-01-09T01:45:06.230Z,0.40
2023-01-09T01:47:42.518Z,1.35
2023-01-09T01:50:34.321Z,0.40
2023-01-09T01:55:36.287Z,0.20
2023-01-09T01:58:05.845Z,0.40
2023-01-09T02:00:38.184Z,0.55
2023-01-09T02:03:05.575Z,0.40
2023-01-09T02:05:33.585Z,0.45
2023-01-09T02:08:01.841Z,0.30
2023-01-09T02:10:28.689Z,1.10
2023-01-09T02:12:55.438Z,0.40
2023-01-09T02:15:22.586Z,0.30
2023-01-09T02:18:14.727Z,0.30
2023-01-09T02:20:51.774Z,0.40
2023-01-09T02:23:40.355Z,2.55
2023-01-09T02:26:35.392Z,0.95
2023-01-09T02:29:44.356Z,0.68
2023-01-09T02:32:33.386Z,0.95
2023-01-09T02:35:04.379Z,1.08
2023-01-09T02:37:50.726Z,0.60
2023-01-09T02:40:22.347Z,1.40
2023-01-09T02:42:49.135Z,0.65
2023-01-09T02:45:16.452Z,0.68
2023-01-09T02:47:45.416Z,0.22
2023-01-09T02:50:24.745Z,0.40
2023-01-09T02:53:00.840Z,0.77
2023-01-09T03:07:19.062Z,0.57
2023-01-09T03:09:48.763Z,0.20
2023-01-09T03:12:21.607Z,0.40
2023-01-09T03:14:50.954Z,0.73
2023-01-09T03:17:26.394Z,0.20
2023-01-09T03:19:53.896Z,0.85
2023-01-09T03:22:20.536Z,0.75
2023-01-09T03:24:47.772Z,0.17
2023-01-09T03:27:15.704Z,2.28
2023-01-09T03:29:42.405Z,0.30
2023-01-09T03:32:09.092Z,0.40
2023-01-09T03:34:41.628Z,0.70
2023-01-09T03:37:08.314Z,0.50
2023-01-09T03:39:35.010Z,0.30
2023-01-09T03:42:01.817Z,1.13
2023-01-09T03:44:28.445Z,0.50
2023-01-09T03:46:55.126Z,0.45
2023-01-09T03:49:21.855Z,0.65
2023-01-09T03:51:48.599Z,1.20
2023-01-09T03:54:15.282Z,1.63
2023-01-09T03:56:42.097Z,1.33
2023-01-09T03:59:08.687Z,1.25
2023-01-09T04:01:35.746Z,0.40
2023-01-09T04:04:02.492Z,0.82
2023-01-09T04:06:29.393Z,1.88
2023-01-09T04:08:56.420Z,0.55
2023-01-09T04:11:23.118Z,0.90
2023-01-09T04:13:49.711Z,1.25
2023-01-09T04:16:19.570Z,2.42
2023-01-09T04:18:46.163Z,1.98
2023-01-09T04:21:12.898Z,6.47
2023-01-09T04:23:39.552Z,2.33
2023-01-09T04:26:06.342Z,2.75
2023-01-09T04:28:33.062Z,1.77
2023-01-09T04:30:59.853Z,5.65
2023-01-09T04:33:26.533Z,2.00
2023-01-09T04:35:53.275Z,2.55
2023-01-09T04:38:20.049Z,0.88
2023-01-09T04:40:49.722Z,1.38
2023-01-09T04:51:48.128Z,1.90
2023-01-09T04:54:15.358Z,3.55
2023-01-09T04:56:42.110Z,2.97
2023-01-09T04:59:08.963Z,1.00
2023-01-09T05:01:38.117Z,3.72
2023-01-09T05:06:50.249Z,1.95
2023-01-09T05:09:17.104Z,2.05
2023-01-09T05:11:43.747Z,1.10
2023-01-09T05:14:12.983Z,3.20
2023-01-09T05:16:39.747Z,3.80
2023-01-09T05:24:22.182Z,6.20
2023-01-09T05:26:48.905Z,1.42
2023-01-09T05:29:15.689Z,2.33
2023-01-09T05:31:42.391Z,1.77
2023-01-09T05:34:16.517Z,4.18
2023-01-09T05:36:43.221Z,3.40
2023-01-09T05:39:13.019Z,8.18
2023-01-09T05:41:39.617Z,4.22
2023-01-09T05:44:06.340Z,1.35
2023-01-09T05:46:33.479Z,3.92
2023-01-09T05:51:35.631Z,2.65
2023-01-09T05:54:02.984Z,3.58
2023-01-09T05:56:30.386Z,3.90
2023-01-09T05:58:57.131Z,1.42
2023-01-09T06:01:24.186Z,5.82
2023-01-09T06:06:36.915Z,5.35
2023-01-09T06:09:03.754Z,8.77
2023-01-09T06:11:31.533Z,2.97
2023-01-09T06:13:58.199Z,5.70
2023-01-09T06:16:24.965Z,3.47
2023-01-09T06:21:33.858Z,4.38
2023-01-09T06:24:03.081Z,3.33
2023-01-09T06:26:30.271Z,1.90
2023-01-09T06:28:56.881Z,6.53
2023-01-09T06:31:24.512Z,3.75
2023-01-09T06:36:26.271Z,5.28
2023-01-09T06:38:53.125Z,1.58
2023-01-09T06:41:20.043Z,4.40
2023-01-09T06:43:46.783Z,6.40
2023-01-09T06:46:13.572Z,3.47
2023-01-09T07:05:14.574Z,1.98
2023-01-09T07:07:41.699Z,1.67
2023-01-09T07:10:09.636Z,2.67
2023-01-09T07:23:41.079Z,1.45
2023-01-09T07:26:07.880Z,0.90
2023-01-09T07:28:34.602Z,2.47
2023-01-09T07:31:02.648Z,3.63
2023-01-09T07:36:11.931Z,5.57
2023-01-09T07:38:39.631Z,2.25
2023-01-09T07:41:07.584Z,1.75
2023-01-09T07:43:34.416Z,1.50
2023-01-09T07:46:01.199Z,3.40
2023-01-09T07:51:46.431Z,2.92
2023-01-09T07:54:13.508Z,4.07
2023-01-09T07:56:41.047Z,4.10
2023-01-09T07:59:07.994Z,1.80
2023-01-09T08:01:35.170Z,0.55
2023-01-09T08:04:01.971Z,1.40
2023-01-09T08:09:15.108Z,1.33
2023-01-09T08:11:42.278Z,1.20
2023-01-09T08:14:09.139Z,1.38
2023-01-09T08:16:37.151Z,1.40
2023-01-09T08:19:03.760Z,1.80
2023-01-09T08:24:02.875Z,1.05
2023-01-09T08:26:29.473Z,1.08
2023-01-09T08:28:56.078Z,0.52
2023-01-09T08:31:22.722Z,1.98
2023-01-09T08:36:39.992Z,3.00
2023-01-09T08:39:06.625Z,1.67
2023-01-09T08:41:52.152Z,4.07
2023-01-09T08:44:37.716Z,2.05
2023-01-09T08:47:07.664Z,0.38
2023-01-09T08:49:35.859Z,1.38
2023-01-09T08:52:03.107Z,2.67
2023-01-09T08:54:31.274Z,1.10
2023-01-09T08:56:58.226Z,1.25
2023-01-09T08:59:24.861Z,2.90
2023-01-09T09:01:51.648Z,2.92
2023-01-09T09:04:19.414Z,5.07
2023-01-09T09:06:46.157Z,2.90
2023-01-09T09:09:19.368Z,1.95
2023-01-09T09:11:46.153Z,1.40
2023-01-09T09:14:31.270Z,2.42
2023-01-09T09:16:57.899Z,2.63
2023-01-09T09:19:24.548Z,0.20
2023-01-09T09:21:51.378Z,1.65
2023-01-09T09:29:52.883Z,7.05
2023-01-09T09:32:19.973Z,0.45
2023-01-09T09:34:47.789Z,0.40
2023-01-09T09:37:14.841Z,3.75
2023-01-09T09:39:41.488Z,2.67
2023-01-09T09:45:11.588Z,1.48
2023-01-09T09:47:48.299Z,0.85
2023-01-09T09:53:10.290Z,2.30
2023-01-09T09:55:39.970Z,2.42
2023-01-09T09:58:15.613Z,1.50
2023-01-09T10:00:43.029Z,4.60
2023-01-09T10:03:20.450Z,2.92
2023-01-09T10:05:51.884Z,2.60
2023-01-09T10:17:10.303Z,0.93
2023-01-09T10:22:15.362Z,2.25
2023-01-09T10:25:20.666Z,1.13
2023-01-09T10:28:08.739Z,1.48
2023-01-09T10:30:40.200Z,2.45
2023-01-09T10:36:06.298Z,2.70
2023-01-09T10:38:36.852Z,2.63
2023-01-09T10:43:50.083Z,2.67
2023-01-09T10:46:25.921Z,3.60
2023-01-09T10:49:01.549Z,1.30
2023-01-09T10:51:36.233Z,0.55
2023-01-09T10:54:06.217Z,2.60
2023-01-09T10:56:37.000Z,3.20
2023-01-09T10:59:03.735Z,4.63
2023-01-09T11:01:34.879Z,2.40
2023-01-09T11:04:02.280Z,0.80
2023-01-09T11:06:45.827Z,0.73
2023-01-09T11:09:15.108Z,3.58
2023-01-09T11:14:31.376Z,2.60
2023-01-09T11:17:04.273Z,3.35
2023-01-09T11:19:33.412Z,1.63
2023-01-09T11:22:17.225Z,0.95
2023-01-09T11:24:44.232Z,7.25
2023-01-09T11:27:13.974Z,1.17
2023-01-09T11:35:34.747Z,2.13
2023-01-09T11:40:54.086Z,3.13
2023-01-09T11:43:25.514Z,1.35
2023-01-09T11:46:01.022Z,3.60
2023-01-09T11:48:35.121Z,1.27
2023-01-09T11:51:09.978Z,2.00
2023-01-09T11:56:17.599Z,1.17
2023-01-09T11:58:44.347Z,0.30
2023-01-09T12:01:36.319Z,2.60
2023-01-09T12:07:21.780Z,2.03
2023-01-09T12:09:56.982Z,0.38
2023-01-09T12:12:40.902Z,0.30
2023-01-09T12:18:35.673Z,1.08
2023-01-09T12:21:06.624Z,0.70
2023-01-09T13:23:04.668Z,3.00
2023-01-09T13:25:41.934Z,0.50
2023-01-09T13:28:19.576Z,0.30
2023-01-09T13:31:04.738Z,1.13
2023-01-09T13:33:34.371Z,1.85
2023-01-09T13:36:03.407Z,0.43
2023-01-09T13:58:06.413Z,4.32
2023-01-09T14:00:47.912Z,2.72
2023-01-09T14:08:35.328Z,1.98
2023-01-09T14:16:45.939Z,2.17
2023-01-09T14:19:22.212Z,2.50
2023-01-09T14:21:55.996Z,1.70
2023-01-09T14:24:25.597Z,2.97
2023-01-09T14:26:57.187Z,4.20
2023-01-09T14:29:39.147Z,3.65
2023-01-09T14:43:52.277Z,4.28
2023-01-09T14:46:21.141Z,1.42
2023-01-09T14:48:57.583Z,5.22
2023-01-09T14:51:26.385Z,1.95
2023-01-09T14:53:55.650Z,1.58
2023-01-09T15:04:43.596Z,2.40
2023-01-09T15:07:23.895Z,1.75
2023-01-09T15:12:31.494Z,3.22
2023-01-09T15:15:01.531Z,2.40
2023-01-09T15:17:32.632Z,1.48
2023-01-09T15:22:38.058Z,1.55
2023-01-09T15:25:34.019Z,5.97
2023-01-09T15:28:39.909Z,5.45
2023-01-09T15:31:13.042Z,7.65
2023-01-09T15:33:40.500Z,1.30
2023-01-09T15:36:33.046Z,1.23
2023-01-09T15:39:00.880Z,4.45
2023-01-09T15:42:01.935Z,1.48
2023-01-09T15:44:30.255Z,4.15
2023-01-09T15:52:26.959Z,3.00
2023-01-09T15:54:54.347Z,1.30
2023-01-09T15:57:27.441Z,3.25
2023-01-09T15:59:54.982Z,3.85
2023-01-09T16:02:41.511Z,2.72
2023-01-09T16:05:20.354Z,1.85
2023-01-09T16:16:02.163Z,4.25
2023-01-09T16:18:35.061Z,1.67
2023-01-09T16:21:12.052Z,3.13
2023-01-09T16:23:54.765Z,4.35
2023-01-09T16:26:24.642Z,2.28
2023-01-09T16:28:55.017Z,1.35
2023-01-09T16:34:14.871Z,2.80
2023-01-09T16:36:41.896Z,3.70
2023-01-09T16:39:15.041Z,1.42
2023-01-09T16:42:02.563Z,3.28
2023-01-09T16:44:29.780Z,4.28
2023-01-09T16:46:56.775Z,2.67
2023-01-09T16:52:17.947Z,2.60
2023-01-09T16:54:47.933Z,4.15
2023-01-09T16:57:18.268Z,3.80
2023-01-09T16:59:51.466Z,5.78
2023-01-09T17:02:20.482Z,3.75
2023-01-09T17:04:48.074Z,6.55
2023-01-09T17:07:16.261Z,6.28
2023-01-09T17:09:43.591Z,6.40
2023-01-09T17:12:24.259Z,3.72
2023-01-09T17:17:18.319Z,2.22
2023-01-09T17:19:46.895Z,8.02
2023-01-09T17:22:14.278Z,6.25
2023-01-09T17:24:59.635Z,3.55
2023-01-09T17:27:49.889Z,4.97
2023-01-09T17:30:19.125Z,2.97
2023-01-09T17:32:46.507Z,4.20
2023-01-09T17:35:13.688Z,4.75
2023-01-09T17:37:40.382Z,4.68
2023-01-09T17:40:33.184Z,11.95
2023-01-09T17:42:59.861Z,5.55
2023-01-09T17:45:27.875Z,8.52
2023-01-09T17:47:54.764Z,2.60
2023-01-09T17:50:21.838Z,5.43
2023-01-09T17:52:49.308Z,3.78
2023-01-09T17:55:20.590Z,3.88
2023-01-09T17:57:47.365Z,6.35
2023-01-09T18:00:36.689Z,6.82
2023-01-09T18:03:05.038Z,5.72
2023-01-09T18:05:32.838Z,6.82
2023-01-09T18:08:00.894Z,4.65
2023-01-09T18:10:27.780Z,7.63
2023-01-09T18:12:55.741Z,5.32
2023-01-09T18:15:24.466Z,11.38
2023-01-09T18:17:52.025Z,6.15
2023-01-09T18:20:18.969Z,3.90
2023-01-09T18:22:46.766Z,4.72
2023-01-09T18:27:56.388Z,5.65
2023-01-09T18:30:23.173Z,5.68
2023-01-09T18:32:51.417Z,4.75
2023-01-09T18:35:18.258Z,7.20
2023-01-09T18:37:45.101Z,5.70
2023-01-09T18:45:19.325Z,6.00
2023-01-09T18:47:46.127Z,8.38
2023-01-09T18:50:13.150Z,5.13
2023-01-09T18:52:39.926Z,5.13
2023-01-09T18:57:48.967Z,7.72
2023-01-09T19:00:15.951Z,7.57
2023-01-09T19:02:42.793Z,8.65
2023-01-09T19:05:09.619Z,6.95
2023-01-09T19:07:36.430Z,7.63
2023-01-09T19:12:46.814Z,4.20
2023-01-09T19:17:42.933Z,6.00
2023-01-09T19:20:10.470Z,5.60
2023-01-09T19:22:37.146Z,8.50
2023-01-09T19:30:40.405Z,4.25
2023-01-09T19:33:07.460Z,3.33
2023-01-09T19:35:34.498Z,4.15
2023-01-09T19:38:01.188Z,3.17
2023-01-09T19:40:27.830Z,2.85
2023-01-09T19:45:42.815Z,2.95
2023-01-09T19:48:09.796Z,6.18
2023-01-09T19:50:38.240Z,6.35
2023-01-09T19:53:04.898Z,6.35
2023-01-09T19:55:31.542Z,2.78
2023-01-09T20:00:42.557Z,2.05
2023-01-09T20:03:09.543Z,2.53
2023-01-09T20:05:36.346Z,5.05
2023-01-09T20:08:06.240Z,3.33
2023-01-09T20:10:35.347Z,2.28
2023-01-09T20:13:05.679Z,5.05
2023-01-09T20:15:32.352Z,2.60
2023-01-09T20:17:59.752Z,3.55
2023-01-09T20:20:26.408Z,4.05
2023-01-09T20:22:53.153Z,2.85
2023-01-09T20:25:19.894Z,3.85
2023-01-09T20:28:06.777Z,4.30
2023-01-09T20:30:34.203Z,4.60
2023-01-09T20:33:00.894Z,3.70
2023-01-09T20:35:27.703Z,3.38
2023-01-09T20:37:54.318Z,4.00
2023-01-09T20:40:21.030Z,4.93
2023-01-09T20:48:29.199Z,5.10
2023-01-09T20:50:55.842Z,4.53
2023-01-09T20:53:22.509Z,7.18
2023-01-09T20:55:49.180Z,5.07
2023-01-09T20:58:18.949Z,6.45
2023-01-09T21:03:25.955Z,6.07
2023-01-09T21:05:52.577Z,6.20
2023-01-09T21:08:19.498Z,4.88
2023-01-09T21:10:46.072Z,9.93
2023-01-09T21:13:19.633Z,7.97
2023-01-09T21:15:52.665Z,8.73
2023-01-09T21:18:19.749Z,5.90
2023-01-09T21:20:46.399Z,7.75
2023-01-09T21:23:13.072Z,4.38
2023-01-09T21:25:41.960Z,8.05
2023-01-09T21:28:14.238Z,3.17
2023-01-09T21:33:13.793Z,4.28
2023-01-09T21:35:40.504Z,6.82
2023-01-09T21:38:07.138Z,8.20
2023-01-09T21:40:33.773Z,4.57
2023-01-09T21:51:08.449Z,8.75
2023-01-09T21:53:35.199Z,3.20
2023-01-09T21:56:05.149Z,7.43
2023-01-09T21:58:31.996Z,5.35
2023-01-09T22:01:00.671Z,6.38
2023-01-09T22:06:09.460Z,3.65
2023-01-09T22:08:36.505Z,3.13
2023-01-09T22:11:04.629Z,5.60
2023-01-09T22:13:33.566Z,5.30
2023-01-09T22:16:05.582Z,4.90
2023-01-09T22:18:34.363Z,5.72
2023-01-09T22:21:01.852Z,9.35
2023-01-09T22:23:28.659Z,6.72
2023-01-09T22:25:56.238Z,6.63
2023-01-09T22:28:23.561Z,7.13
2023-01-09T22:30:50.328Z,6.25
2023-01-09T22:35:58.591Z,5.88
2023-01-09T22:38:25.253Z,11.37
2023-01-09T22:40:51.921Z,10.18
2023-01-09T22:43:18.628Z,15.13
2023-01-09T22:45:45.303Z,6.32
2023-01-09T22:50:51.759Z,8.15
2023-01-09T22:53:18.699Z,10.77
2023-01-09T22:55:45.478Z,5.93
2023-01-09T22:58:12.162Z,7.55
2023-01-09T23:00:38.797Z,10.70
2023-01-09T23:03:05.561Z,7.18
2023-01-09T23:05:37.667Z,7.32
2023-01-09T23:08:04.495Z,9.27
2023-01-09T23:10:31.185Z,7.07
2023-01-09T23:12:57.832Z,11.82
2023-01-09T23:18:21.564Z,6.28
2023-01-09T23:20:53.047Z,7.20
2023-01-09T23:23:21.080Z,10.23
2023-01-09T23:25:49.545Z,6.95
2023-01-09T23:28:16.152Z,12.25
2023-01-09T23:30:43.233Z,6.15
2023-01-09T23:35:44.882Z,7.90
2023-01-09T23:38:11.743Z,8.80
2023-01-09T23:40:39.898Z,6.60
2023-01-09T23:43:09.351Z,8.77
2023-01-09T23:48:29.634Z,7.93
2023-01-09T23:59:08.978Z,6.57
